sensor_id;sensor_type;location;lat;lon;timestamp;P1;durP1;ratioP1;P2;durP2;ratioP2
36253;SDS011;22291;52.250;21.228;2023-02-03T00:02:04;11.38;;;6.30;;
36253;SDS011;22291;52.250;21.228;2023-02-03T00:04:30;12.13;;;5.87;;
36253;SDS011;22291;52.250;21.228;2023-02-03T00:06:58;10.53;;;6.00;;
36253;SDS011;22291;52.250;21.228;2023-02-03T00:09:26;10.78;;;6.30;;
36253;SDS011;22291;52.250;21.228;2023-02-03T00:11:53;12.75;;;6.40;;
36253;SDS011;22291;52.250;21.228;2023-02-03T00:14:21;9.85;;;6.60;;
36253;SDS011;22291;52.250;21.228;2023-02-03T00:16:48;9.85;;;6.15;;
36253;SDS011;22291;52.250;21.228;2023-02-03T00:19:15;12.18;;;6.78;;
36253;SDS011;22291;52.250;21.228;2023-02-03T00:21:41;14.15;;;7.35;;
36253;SDS011;22291;52.250;21.228;2023-02-03T00:24:07;12.37;;;7.03;;
36253;SDS011;22291;52.250;21.228;2023-02-03T00:26:33;10.08;;;6.85;;
36253;SDS011;22291;52.250;21.228;2023-02-03T00:28:59;14.70;;;7.12;;
36253;SDS011;22291;52.250;21.228;2023-02-03T00:31:26;15.08;;;7.47;;
36253;SDS011;22291;52.250;21.228;2023-02-03T00:33:53;10.95;;;6.70;;
36253;SDS011;22291;52.250;21.228;2023-02-03T00:36:23;12.15;;;7.03;;
36253;SDS011;22291;52.250;21.228;2023-02-03T00:41:20;9.13;;;6.22;;
36253;SDS011;22291;52.250;21.228;2023-02-03T00:43:50;13.25;;;6.95;;
36253;SDS011;22291;52.250;21.228;2023-02-03T00:46:19;10.68;;;6.95;;
36253;SDS011;22291;52.250;21.228;2023-02-03T00:48:45;11.75;;;6.53;;
36253;SDS011;22291;52.250;21.228;2023-02-03T00:51:12;12.18;;;6.72;;
36253;SDS011;22291;52.250;21.228;2023-02-03T00:53:38;11.35;;;6.47;;
36253;SDS011;22291;52.250;21.228;2023-02-03T00:56:06;9.33;;;5.90;;
36253;SDS011;22291;52.250;21.228;2023-02-03T00:58:34;12.35;;;6.87;;
36253;SDS011;22291;52.250;21.228;2023-02-03T01:01:02;12.53;;;6.80;;
36253;SDS011;22291;52.250;21.228;2023-02-03T01:06:16;9.50;;;5.35;;
36253;SDS011;22291;52.250;21.228;2023-02-03T01:08:45;9.35;;;5.53;;
36253;SDS011;22291;52.250;21.228;2023-02-03T01:11:16;7.70;;;5.47;;
36253;SDS011;22291;52.250;21.228;2023-02-03T01:13:49;10.70;;;5.87;;
36253;SDS011;22291;52.250;21.228;2023-02-03T01:16:20;11.15;;;5.85;;
36253;SDS011;22291;52.250;21.228;2023-02-03T01:18:49;9.00;;;5.87;;
36253;SDS011;22291;52.250;21.228;2023-02-03T01:21:18;8.28;;;5.67;;
36253;SDS011;22291;52.250;21.228;2023-02-03T01:23:49;10.63;;;6.17;;
36253;SDS011;22291;52.250;21.228;2023-02-03T01:26:20;11.63;;;6.83;;
36253;SDS011;22291;52.250;21.228;2023-02-03T01:28:54;10.85;;;6.08;;
36253;SDS011;22291;52.250;21.228;2023-02-03T01:31:22;10.18;;;5.90;;
36253;SDS011;22291;52.250;21.228;2023-02-03T01:33:53;8.28;;;5.08;;
36253;SDS011;22291;52.250;21.228;2023-02-03T01:36:23;10.43;;;6.30;;
36253;SDS011;22291;52.250;21.228;2023-02-03T01:38:54;9.10;;;4.90;;
36253;SDS011;22291;52.250;21.228;2023-02-03T01:41:23;8.88;;;4.85;;
36253;SDS011;22291;52.250;21.228;2023-02-03T01:43:55;7.12;;;4.60;;
36253;SDS011;22291;52.250;21.228;2023-02-03T01:46:47;11.38;;;5.50;;
36253;SDS011;22291;52.250;21.228;2023-02-03T01:49:19;9.85;;;4.70;;
36253;SDS011;22291;52.250;21.228;2023-02-03T01:51:51;10.50;;;4.97;;
36253;SDS011;22291;52.250;21.228;2023-02-03T01:54:21;7.70;;;4.42;;
36253;SDS011;22291;52.250;21.228;2023-02-03T01:56:54;6.90;;;5.03;;
36253;SDS011;22291;52.250;21.228;2023-02-03T01:59:25;7.95;;;4.85;;
36253;SDS011;22291;52.250;21.228;2023-02-03T02:01:56;9.35;;;5.45;;
36253;SDS011;22291;52.250;21.228;2023-02-03T02:04:27;9.00;;;5.67;;
36253;SDS011;22291;52.250;21.228;2023-02-03T02:06:57;7.10;;;5.03;;
36253;SDS011;22291;52.250;21.228;2023-02-03T02:09:26;9.38;;;4.60;;
36253;SDS011;22291;52.250;21.228;2023-02-03T02:11:54;6.55;;;4.10;;
36253;SDS011;22291;52.250;21.228;2023-02-03T02:14:21;5.83;;;4.12;;
36253;SDS011;22291;52.250;21.228;2023-02-03T02:40:13;14.28;;;9.80;;
36253;SDS011;22291;52.250;21.228;2023-02-03T02:43:05;12.68;;;8.13;;
36253;SDS011;22291;52.250;21.228;2023-02-03T02:45:45;14.03;;;6.53;;
36253;SDS011;22291;52.250;21.228;2023-02-03T02:48:41;16.17;;;8.60;;
36253;SDS011;22291;52.250;21.228;2023-02-03T02:51:22;12.18;;;6.75;;
36253;SDS011;22291;52.250;21.228;2023-02-03T02:53:58;15.10;;;8.43;;
36253;SDS011;22291;52.250;21.228;2023-02-03T02:56:24;12.73;;;6.47;;
36253;SDS011;22291;52.250;21.228;2023-02-03T02:58:55;19.52;;;11.97;;
36253;SDS011;22291;52.250;21.228;2023-02-03T03:01:27;19.50;;;10.25;;
36253;SDS011;22291;52.250;21.228;2023-02-03T03:03:54;18.67;;;11.63;;
36253;SDS011;22291;52.250;21.228;2023-02-03T03:09:20;12.05;;;8.40;;
36253;SDS011;22291;52.250;21.228;2023-02-03T03:11:57;8.55;;;4.45;;
36253;SDS011;22291;52.250;21.228;2023-02-03T03:14:22;10.05;;;5.47;;
36253;SDS011;22291;52.250;21.228;2023-02-03T03:16:53;12.40;;;8.48;;
36253;SDS011;22291;52.250;21.228;2023-02-03T03:19:31;13.43;;;5.92;;
36253;SDS011;22291;52.250;21.228;2023-02-03T03:22:03;15.05;;;9.08;;
36253;SDS011;22291;52.250;21.228;2023-02-03T03:24:42;8.93;;;5.75;;
36253;SDS011;22291;52.250;21.228;2023-02-03T03:27:22;13.48;;;8.60;;
36253;SDS011;22291;52.250;21.228;2023-02-03T03:29:57;14.78;;;8.15;;
36253;SDS011;22291;52.250;21.228;2023-02-03T03:32:37;22.73;;;8.40;;
36253;SDS011;22291;52.250;21.228;2023-02-03T03:35:07;34.78;;;13.15;;
36253;SDS011;22291;52.250;21.228;2023-02-03T03:37:37;34.63;;;12.03;;
36253;SDS011;22291;52.250;21.228;2023-02-03T03:40:32;30.25;;;11.45;;
36253;SDS011;22291;52.250;21.228;2023-02-03T03:42:51;36.23;;;13.65;;
36253;SDS011;22291;52.250;21.228;2023-02-03T03:45:38;40.30;;;13.90;;
36253;SDS011;22291;52.250;21.228;2023-02-03T03:48:29;35.23;;;13.58;;
36253;SDS011;22291;52.250;21.228;2023-02-03T03:51:07;32.05;;;15.48;;
36253;SDS011;22291;52.250;21.228;2023-02-03T03:53:37;20.70;;;8.98;;
36253;SDS011;22291;52.250;21.228;2023-02-03T03:56:09;33.35;;;11.35;;
36253;SDS011;22291;52.250;21.228;2023-02-03T03:58:41;20.50;;;8.10;;
36253;SDS011;22291;52.250;21.228;2023-02-03T04:01:13;25.75;;;9.83;;
36253;SDS011;22291;52.250;21.228;2023-02-03T04:03:47;20.55;;;10.10;;
36253;SDS011;22291;52.250;21.228;2023-02-03T04:06:21;23.52;;;12.40;;
36253;SDS011;22291;52.250;21.228;2023-02-03T04:08:49;19.00;;;10.10;;
36253;SDS011;22291;52.250;21.228;2023-02-03T04:11:20;9.88;;;5.53;;
36253;SDS011;22291;52.250;21.228;2023-02-03T04:14:04;18.52;;;7.97;;
36253;SDS011;22291;52.250;21.228;2023-02-03T04:16:30;21.52;;;9.73;;
36253;SDS011;22291;52.250;21.228;2023-02-03T04:18:56;19.95;;;9.83;;
36253;SDS011;22291;52.250;21.228;2023-02-03T04:21:23;20.50;;;9.43;;
36253;SDS011;22291;52.250;21.228;2023-02-03T04:23:52;14.90;;;7.42;;
36253;SDS011;22291;52.250;21.228;2023-02-03T04:26:20;18.42;;;8.68;;
36253;SDS011;22291;52.250;21.228;2023-02-03T04:28:46;16.65;;;8.60;;
36253;SDS011;22291;52.250;21.228;2023-02-03T04:31:12;29.40;;;14.93;;
36253;SDS011;22291;52.250;21.228;2023-02-03T04:33:38;28.67;;;14.43;;
36253;SDS011;22291;52.250;21.228;2023-02-03T04:36:07;25.43;;;11.85;;
36253;SDS011;22291;52.250;21.228;2023-02-03T04:38:34;25.25;;;9.83;;
36253;SDS011;22291;52.250;21.228;2023-02-03T04:41:02;24.30;;;10.18;;
36253;SDS011;22291;52.250;21.228;2023-02-03T04:43:34;16.85;;;8.20;;
36253;SDS011;22291;52.250;21.228;2023-02-03T04:46:01;29.98;;;12.65;;
36253;SDS011;22291;52.250;21.228;2023-02-03T04:48:31;34.48;;;15.88;;
36253;SDS011;22291;52.250;21.228;2023-02-03T04:51:01;40.35;;;18.90;;
36253;SDS011;22291;52.250;21.228;2023-02-03T04:53:31;16.45;;;9.40;;
36253;SDS011;22291;52.250;21.228;2023-02-03T04:56:01;22.42;;;10.03;;
36253;SDS011;22291;52.250;21.228;2023-02-03T04:58:35;13.48;;;6.55;;
36253;SDS011;22291;52.250;21.228;2023-02-03T05:01:05;18.07;;;9.33;;
36253;SDS011;22291;52.250;21.228;2023-02-03T05:03:35;15.93;;;9.23;;
36253;SDS011;22291;52.250;21.228;2023-02-03T05:06:05;13.93;;;7.85;;
36253;SDS011;22291;52.250;21.228;2023-02-03T05:08:32;15.65;;;6.62;;
36253;SDS011;22291;52.250;21.228;2023-02-03T05:11:00;9.88;;;6.05;;
36253;SDS011;22291;52.250;21.228;2023-02-03T05:13:26;8.00;;;4.22;;
36253;SDS011;22291;52.250;21.228;2023-02-03T05:15:53;12.23;;;5.08;;
36253;SDS011;22291;52.250;21.228;2023-02-03T05:18:19;9.75;;;5.72;;
36253;SDS011;22291;52.250;21.228;2023-02-03T05:20:45;11.65;;;5.87;;
36253;SDS011;22291;52.250;21.228;2023-02-03T05:23:11;11.57;;;5.83;;
36253;SDS011;22291;52.250;21.228;2023-02-03T05:25:38;9.95;;;4.53;;
36253;SDS011;22291;52.250;21.228;2023-02-03T05:28:04;5.67;;;4.20;;
36253;SDS011;22291;52.250;21.228;2023-02-03T05:30:30;6.35;;;3.85;;
36253;SDS011;22291;52.250;21.228;2023-02-03T05:32:56;12.35;;;4.58;;
36253;SDS011;22291;52.250;21.228;2023-02-03T05:35:22;7.77;;;3.57;;
36253;SDS011;22291;52.250;21.228;2023-02-03T05:37:48;8.68;;;4.87;;
36253;SDS011;22291;52.250;21.228;2023-02-03T05:40:17;8.83;;;4.05;;
36253;SDS011;22291;52.250;21.228;2023-02-03T05:43:02;11.15;;;5.85;;
36253;SDS011;22291;52.250;21.228;2023-02-03T05:45:28;8.78;;;5.20;;
36253;SDS011;22291;52.250;21.228;2023-02-03T05:47:55;10.53;;;5.55;;
36253;SDS011;22291;52.250;21.228;2023-02-03T05:50:21;8.43;;;4.53;;
36253;SDS011;22291;52.250;21.228;2023-02-03T05:52:47;8.43;;;4.97;;
36253;SDS011;22291;52.250;21.228;2023-02-03T05:55:15;8.30;;;4.65;;
36253;SDS011;22291;52.250;21.228;2023-02-03T05:57:41;9.10;;;4.37;;
36253;SDS011;22291;52.250;21.228;2023-02-03T06:00:11;14.03;;;8.00;;
36253;SDS011;22291;52.250;21.228;2023-02-03T06:02:42;9.35;;;4.90;;
36253;SDS011;22291;52.250;21.228;2023-02-03T06:05:10;10.55;;;6.15;;
36253;SDS011;22291;52.250;21.228;2023-02-03T06:07:36;10.18;;;5.35;;
36253;SDS011;22291;52.250;21.228;2023-02-03T06:10:07;14.20;;;7.72;;
36253;SDS011;22291;52.250;21.228;2023-02-03T06:12:34;10.78;;;5.50;;
36253;SDS011;22291;52.250;21.228;2023-02-03T06:15:07;14.00;;;8.98;;
36253;SDS011;22291;52.250;21.228;2023-02-03T06:17:35;11.78;;;6.37;;
36253;SDS011;22291;52.250;21.228;2023-02-03T06:20:03;16.40;;;10.68;;
36253;SDS011;22291;52.250;21.228;2023-02-03T06:22:34;12.50;;;6.90;;
36253;SDS011;22291;52.250;21.228;2023-02-03T06:25:00;18.37;;;10.10;;
36253;SDS011;22291;52.250;21.228;2023-02-03T06:27:26;10.70;;;6.45;;
36253;SDS011;22291;52.250;21.228;2023-02-03T06:29:53;14.85;;;7.72;;
36253;SDS011;22291;52.250;21.228;2023-02-03T06:32:19;17.67;;;7.33;;
36253;SDS011;22291;52.250;21.228;2023-02-03T06:34:45;15.23;;;7.67;;
36253;SDS011;22291;52.250;21.228;2023-02-03T06:37:12;17.50;;;9.90;;
36253;SDS011;22291;52.250;21.228;2023-02-03T06:42:07;15.53;;;9.50;;
36253;SDS011;22291;52.250;21.228;2023-02-03T06:44:36;15.78;;;7.15;;
36253;SDS011;22291;52.250;21.228;2023-02-03T06:47:02;14.50;;;9.38;;
36253;SDS011;22291;52.250;21.228;2023-02-03T06:49:28;19.90;;;8.93;;
36253;SDS011;22291;52.250;21.228;2023-02-03T06:51:56;22.15;;;11.85;;
36253;SDS011;22291;52.250;21.228;2023-02-03T06:54:28;16.62;;;9.13;;
36253;SDS011;22291;52.250;21.228;2023-02-03T06:56:54;16.85;;;9.53;;
36253;SDS011;22291;52.250;21.228;2023-02-03T06:59:20;17.25;;;9.18;;
36253;SDS011;22291;52.250;21.228;2023-02-03T07:01:49;8.18;;;5.17;;
36253;SDS011;22291;52.250;21.228;2023-02-03T07:04:16;14.47;;;7.28;;
36253;SDS011;22291;52.250;21.228;2023-02-03T07:06:45;17.82;;;8.78;;
36253;SDS011;22291;52.250;21.228;2023-02-03T07:09:16;17.30;;;8.13;;
36253;SDS011;22291;52.250;21.228;2023-02-03T07:11:42;15.98;;;8.13;;
36253;SDS011;22291;52.250;21.228;2023-02-03T07:14:08;14.98;;;8.80;;
36253;SDS011;22291;52.250;21.228;2023-02-03T07:16:35;18.17;;;9.65;;
36253;SDS011;22291;52.250;21.228;2023-02-03T07:19:04;16.67;;;13.03;;
36253;SDS011;22291;52.250;21.228;2023-02-03T07:21:31;20.55;;;8.08;;
36253;SDS011;22291;52.250;21.228;2023-02-03T07:23:59;24.30;;;11.40;;
36253;SDS011;22291;52.250;21.228;2023-02-03T07:26:27;16.75;;;7.42;;
36253;SDS011;22291;52.250;21.228;2023-02-03T07:28:55;23.10;;;12.35;;
36253;SDS011;22291;52.250;21.228;2023-02-03T07:31:23;20.97;;;9.08;;
36253;SDS011;22291;52.250;21.228;2023-02-03T07:33:49;22.10;;;11.25;;
36253;SDS011;22291;52.250;21.228;2023-02-03T07:36:17;18.15;;;11.12;;
36253;SDS011;22291;52.250;21.228;2023-02-03T07:38:44;34.80;;;31.68;;
36253;SDS011;22291;52.250;21.228;2023-02-03T07:41:10;53.38;;;48.98;;
36253;SDS011;22291;52.250;21.228;2023-02-03T07:43:36;62.48;;;56.68;;
36253;SDS011;22291;52.250;21.228;2023-02-03T07:46:05;46.95;;;43.33;;
36253;SDS011;22291;52.250;21.228;2023-02-03T07:48:34;55.63;;;51.00;;
36253;SDS011;22291;52.250;21.228;2023-02-03T07:51:01;79.53;;;73.42;;
36253;SDS011;22291;52.250;21.228;2023-02-03T07:53:32;73.33;;;67.65;;
36253;SDS011;22291;52.250;21.228;2023-02-03T07:56:02;88.72;;;81.95;;
36253;SDS011;22291;52.250;21.228;2023-02-03T07:58:32;84.20;;;77.92;;
36253;SDS011;22291;52.250;21.228;2023-02-03T08:00:58;82.22;;;75.87;;
36253;SDS011;22291;52.250;21.228;2023-02-03T08:03:26;84.90;;;78.62;;
36253;SDS011;22291;52.250;21.228;2023-02-03T08:05:52;85.80;;;79.12;;
36253;SDS011;22291;52.250;21.228;2023-02-03T08:08:21;77.42;;;72.00;;
36253;SDS011;22291;52.250;21.228;2023-02-03T08:10:47;82.70;;;76.42;;
36253;SDS011;22291;52.250;21.228;2023-02-03T08:13:19;81.37;;;75.22;;
36253;SDS011;22291;52.250;21.228;2023-02-03T08:15:47;85.55;;;78.97;;
36253;SDS011;22291;52.250;21.228;2023-02-03T08:18:18;84.40;;;78.40;;
36253;SDS011;22291;52.250;21.228;2023-02-03T08:20:50;84.42;;;78.10;;
36253;SDS011;22291;52.250;21.228;2023-02-03T08:23:18;85.17;;;78.83;;
36253;SDS011;22291;52.250;21.228;2023-02-03T08:25:44;85.47;;;78.90;;
36253;SDS011;22291;52.250;21.228;2023-02-03T08:28:17;85.10;;;79.10;;
36253;SDS011;22291;52.250;21.228;2023-02-03T08:30:45;84.28;;;78.00;;
36253;SDS011;22291;52.250;21.228;2023-02-03T08:33:14;82.70;;;76.80;;
36253;SDS011;22291;52.250;21.228;2023-02-03T08:35:47;83.10;;;77.12;;
36253;SDS011;22291;52.250;21.228;2023-02-03T08:38:17;82.10;;;76.10;;
36253;SDS011;22291;52.250;21.228;2023-02-03T08:43:12;82.43;;;76.63;;
36253;SDS011;22291;52.250;21.228;2023-02-03T08:45:39;61.55;;;57.10;;
36253;SDS011;22291;52.250;21.228;2023-02-03T08:48:11;53.02;;;49.23;;
36253;SDS011;22291;52.250;21.228;2023-02-03T08:50:39;45.20;;;41.92;;
36253;SDS011;22291;52.250;21.228;2023-02-03T08:53:11;76.95;;;71.22;;
36253;SDS011;22291;52.250;21.228;2023-02-03T08:55:38;85.83;;;79.42;;
36253;SDS011;22291;52.250;21.228;2023-02-03T08:58:07;85.97;;;79.87;;
36253;SDS011;22291;52.250;21.228;2023-02-03T09:00:33;82.05;;;76.12;;
36253;SDS011;22291;52.250;21.228;2023-02-03T09:03:00;86.95;;;80.55;;
36253;SDS011;22291;52.250;21.228;2023-02-03T09:05:29;83.22;;;77.17;;
36253;SDS011;22291;52.250;21.228;2023-02-03T09:07:58;86.53;;;80.20;;
36253;SDS011;22291;52.250;21.228;2023-02-03T09:10:26;82.25;;;76.47;;
36253;SDS011;22291;52.250;21.228;2023-02-03T09:12:52;86.50;;;80.30;;
36253;SDS011;22291;52.250;21.228;2023-02-03T09:15:18;81.30;;;75.65;;
36253;SDS011;22291;52.250;21.228;2023-02-03T09:17:45;82.42;;;76.72;;
36253;SDS011;22291;52.250;21.228;2023-02-03T09:20:14;84.30;;;78.00;;
36253;SDS011;22291;52.250;21.228;2023-02-03T09:22:41;82.75;;;76.85;;
36253;SDS011;22291;52.250;21.228;2023-02-03T09:25:10;87.47;;;81.00;;
36253;SDS011;22291;52.250;21.228;2023-02-03T09:27:36;86.80;;;80.47;;
36253;SDS011;22291;52.250;21.228;2023-02-03T09:30:06;84.00;;;78.07;;
36253;SDS011;22291;52.250;21.228;2023-02-03T09:32:33;81.42;;;75.75;;
36253;SDS011;22291;52.250;21.228;2023-02-03T09:35:00;84.15;;;78.12;;
36253;SDS011;22291;52.250;21.228;2023-02-03T09:37:28;40.73;;;37.60;;
36253;SDS011;22291;52.250;21.228;2023-02-03T09:39:55;9.45;;;4.35;;
36253;SDS011;22291;52.250;21.228;2023-02-03T09:42:42;7.10;;;3.87;;
36253;SDS011;22291;52.250;21.228;2023-02-03T09:45:28;7.80;;;3.47;;
36253;SDS011;22291;52.250;21.228;2023-02-03T09:48:18;5.60;;;3.05;;
36253;SDS011;22291;52.250;21.228;2023-02-03T09:50:49;6.47;;;3.62;;
36253;SDS011;22291;52.250;21.228;2023-02-03T09:53:22;6.83;;;4.15;;
36253;SDS011;22291;52.250;21.228;2023-02-03T09:55:54;6.12;;;3.40;;
36253;SDS011;22291;52.250;21.228;2023-02-03T09:58:24;7.67;;;3.22;;
36253;SDS011;22291;52.250;21.228;2023-02-03T10:00:56;5.78;;;3.33;;
36253;SDS011;22291;52.250;21.228;2023-02-03T10:03:44;6.65;;;2.90;;
36253;SDS011;22291;52.250;21.228;2023-02-03T10:06:35;7.42;;;2.70;;
36253;SDS011;22291;52.250;21.228;2023-02-03T10:09:07;6.70;;;3.40;;
36253;SDS011;22291;52.250;21.228;2023-02-03T10:17:36;5.35;;;2.92;;
36253;SDS011;22291;52.250;21.228;2023-02-03T10:20:14;6.65;;;2.70;;
36253;SDS011;22291;52.250;21.228;2023-02-03T10:23:01;5.47;;;2.37;;
36253;SDS011;22291;52.250;21.228;2023-02-03T10:25:48;4.35;;;2.12;;
36253;SDS011;22291;52.250;21.228;2023-02-03T10:28:21;3.33;;;2.05;;
36253;SDS011;22291;52.250;21.228;2023-02-03T10:31:00;2.00;;;1.80;;
36253;SDS011;22291;52.250;21.228;2023-02-03T10:33:29;2.95;;;1.67;;
36253;SDS011;22291;52.250;21.228;2023-02-03T10:41:28;5.80;;;2.60;;
36253;SDS011;22291;52.250;21.228;2023-02-03T10:43:58;4.28;;;2.10;;
36253;SDS011;22291;52.250;21.228;2023-02-03T10:46:31;5.85;;;2.10;;
36253;SDS011;22291;52.250;21.228;2023-02-03T10:49:01;5.03;;;2.33;;
36253;SDS011;22291;52.250;21.228;2023-02-03T10:51:39;3.52;;;1.92;;
36253;SDS011;22291;52.250;21.228;2023-02-03T10:54:28;3.10;;;1.22;;
36253;SDS011;22291;52.250;21.228;2023-02-03T10:57:02;3.20;;;1.50;;
36253;SDS011;22291;52.250;21.228;2023-02-03T10:59:34;2.92;;;1.40;;
36253;SDS011;22291;52.250;21.228;2023-02-03T11:02:08;3.60;;;1.00;;
36253;SDS011;22291;52.250;21.228;2023-02-03T11:07:49;4.03;;;1.30;;
36253;SDS011;22291;52.250;21.228;2023-02-03T11:10:29;2.85;;;1.40;;
36253;SDS011;22291;52.250;21.228;2023-02-03T11:13:11;3.72;;;1.80;;
36253;SDS011;22291;52.250;21.228;2023-02-03T11:15:50;5.03;;;2.27;;
36253;SDS011;22291;52.250;21.228;2023-02-03T11:24:18;5.03;;;3.12;;
36253;SDS011;22291;52.250;21.228;2023-02-03T11:27:02;3.85;;;3.00;;
36253;SDS011;22291;52.250;21.228;2023-02-03T11:29:40;3.72;;;3.05;;
36253;SDS011;22291;52.250;21.228;2023-02-03T11:32:15;4.22;;;2.17;;
36253;SDS011;22291;52.250;21.228;2023-02-03T11:34:55;3.35;;;1.70;;
36253;SDS011;22291;52.250;21.228;2023-02-03T11:37:48;4.62;;;2.50;;
36253;SDS011;22291;52.250;21.228;2023-02-03T12:08:53;2.52;;;1.98;;
36253;SDS011;22291;52.250;21.228;2023-02-03T12:17:52;16.23;;;15.03;;
36253;SDS011;22291;52.250;21.228;2023-02-03T12:21:01;10.10;;;9.30;;
36253;SDS011;22291;52.250;21.228;2023-02-03T12:26:28;15.18;;;14.05;;
36253;SDS011;22291;52.250;21.228;2023-02-03T12:29:11;28.07;;;26.20;;
36253;SDS011;22291;52.250;21.228;2023-02-03T12:31:46;5.62;;;3.55;;
36253;SDS011;22291;52.250;21.228;2023-02-03T12:36:52;57.43;;;53.50;;
36253;SDS011;22291;52.250;21.228;2023-02-03T12:39:37;62.40;;;58.33;;
36253;SDS011;22291;52.250;21.228;2023-02-03T12:42:14;5.22;;;3.33;;
36253;SDS011;22291;52.250;21.228;2023-02-03T12:45:11;5.05;;;3.37;;
36253;SDS011;22291;52.250;21.228;2023-02-03T12:53:35;77.22;;;71.92;;
36253;SDS011;22291;52.250;21.228;2023-02-03T12:56:03;80.87;;;75.20;;
36253;SDS011;22291;52.250;21.228;2023-02-03T12:58:38;79.50;;;73.97;;
36253;SDS011;22291;52.250;21.228;2023-02-03T13:01:29;6.20;;;2.87;;
36253;SDS011;22291;52.250;21.228;2023-02-03T13:06:43;5.85;;;2.65;;
36253;SDS011;22291;52.250;21.228;2023-02-03T13:09:36;3.40;;;2.27;;
36253;SDS011;22291;52.250;21.228;2023-02-03T13:18:01;5.80;;;2.35;;
36253;SDS011;22291;52.250;21.228;2023-02-03T13:20:54;3.25;;;1.95;;
36253;SDS011;22291;52.250;21.228;2023-02-03T13:23:22;6.85;;;2.62;;
36253;SDS011;22291;52.250;21.228;2023-02-03T13:26:03;8.53;;;3.00;;
36253;SDS011;22291;52.250;21.228;2023-02-03T13:28:58;9.73;;;2.47;;
36253;SDS011;22291;52.250;21.228;2023-02-03T13:40:03;8.28;;;3.42;;
36253;SDS011;22291;52.250;21.228;2023-02-03T13:42:51;6.67;;;2.98;;
36253;SDS011;22291;52.250;21.228;2023-02-03T13:48:12;8.40;;;3.67;;
36253;SDS011;22291;52.250;21.228;2023-02-03T13:50:43;5.08;;;2.80;;
36253;SDS011;22291;52.250;21.228;2023-02-03T13:53:15;4.53;;;2.60;;
36253;SDS011;22291;52.250;21.228;2023-02-03T13:58:30;6.75;;;3.47;;
36253;SDS011;22291;52.250;21.228;2023-02-03T14:01:02;10.00;;;3.30;;
36253;SDS011;22291;52.250;21.228;2023-02-03T14:03:45;6.10;;;2.50;;
36253;SDS011;22291;52.250;21.228;2023-02-03T14:09:21;60.38;;;26.10;;
36253;SDS011;22291;52.250;21.228;2023-02-03T14:12:21;23.07;;;14.38;;
36253;SDS011;22291;52.250;21.228;2023-02-03T14:28:39;5.62;;;3.12;;
36253;SDS011;22291;52.250;21.228;2023-02-03T14:31:05;8.58;;;4.12;;
36253;SDS011;22291;52.250;21.228;2023-02-03T14:33:53;7.67;;;3.50;;
36253;SDS011;22291;52.250;21.228;2023-02-03T14:41:51;6.28;;;3.65;;
36253;SDS011;22291;52.250;21.228;2023-02-03T14:50:45;12.25;;;4.80;;
36253;SDS011;22291;52.250;21.228;2023-02-03T14:59:41;9.25;;;5.20;;
36253;SDS011;22291;52.250;21.228;2023-02-03T15:02:21;11.75;;;4.62;;
36253;SDS011;22291;52.250;21.228;2023-02-03T15:04:48;12.85;;;7.60;;
36253;SDS011;22291;52.250;21.228;2023-02-03T15:10:14;10.00;;;4.87;;
36253;SDS011;22291;52.250;21.228;2023-02-03T15:12:49;11.55;;;5.00;;
36253;SDS011;22291;52.250;21.228;2023-02-03T15:15:23;9.23;;;6.05;;
36253;SDS011;22291;52.250;21.228;2023-02-03T15:17:54;15.50;;;6.25;;
36253;SDS011;22291;52.250;21.228;2023-02-03T15:20:33;10.58;;;5.28;;
36253;SDS011;22291;52.250;21.228;2023-02-03T15:41:32;23.67;;;5.85;;
36253;SDS011;22291;52.250;21.228;2023-02-03T15:43:55;11.90;;;5.40;;
36253;SDS011;22291;52.250;21.228;2023-02-03T15:46:29;12.73;;;5.87;;
36253;SDS011;22291;52.250;21.228;2023-02-03T15:51:42;10.48;;;5.42;;
36253;SDS011;22291;52.250;21.228;2023-02-03T15:54:16;11.78;;;4.92;;
36253;SDS011;22291;52.250;21.228;2023-02-03T15:59:30;13.40;;;6.20;;
36253;SDS011;22291;52.250;21.228;2023-02-03T16:02:20;18.23;;;7.62;;
36253;SDS011;22291;52.250;21.228;2023-02-03T16:04:56;13.58;;;6.72;;
36253;SDS011;22291;52.250;21.228;2023-02-03T16:07:34;12.60;;;6.83;;
36253;SDS011;22291;52.250;21.228;2023-02-03T16:10:04;13.45;;;6.35;;
36253;SDS011;22291;52.250;21.228;2023-02-03T16:12:32;13.08;;;7.67;;
36253;SDS011;22291;52.250;21.228;2023-02-03T16:14:59;14.70;;;9.18;;
36253;SDS011;22291;52.250;21.228;2023-02-03T16:17:30;17.52;;;7.85;;
36253;SDS011;22291;52.250;21.228;2023-02-03T16:22:47;18.40;;;8.10;;
36253;SDS011;22291;52.250;21.228;2023-02-03T16:25:30;16.25;;;8.55;;
36253;SDS011;22291;52.250;21.228;2023-02-03T16:28:00;16.17;;;9.33;;
36253;SDS011;22291;52.250;21.228;2023-02-03T16:31:09;13.43;;;7.10;;
36253;SDS011;22291;52.250;21.228;2023-02-03T16:33:54;15.93;;;6.55;;
36253;SDS011;22291;52.250;21.228;2023-02-03T16:36:39;13.60;;;7.00;;
36253;SDS011;22291;52.250;21.228;2023-02-03T16:39:27;11.30;;;4.97;;
36253;SDS011;22291;52.250;21.228;2023-02-03T16:42:14;14.90;;;7.08;;
36253;SDS011;22291;52.250;21.228;2023-02-03T16:45:02;14.75;;;6.90;;
36253;SDS011;22291;52.250;21.228;2023-02-03T16:47:51;12.98;;;7.20;;
36253;SDS011;22291;52.250;21.228;2023-02-03T16:50:37;12.68;;;7.60;;
36253;SDS011;22291;52.250;21.228;2023-02-03T16:53:19;14.70;;;7.58;;
36253;SDS011;22291;52.250;21.228;2023-02-03T16:55:55;15.48;;;7.40;;
36253;SDS011;22291;52.250;21.228;2023-02-03T16:58:24;15.03;;;7.58;;
36253;SDS011;22291;52.250;21.228;2023-02-03T17:00:51;12.75;;;7.15;;
36253;SDS011;22291;52.250;21.228;2023-02-03T17:03:19;19.77;;;7.25;;
36253;SDS011;22291;52.250;21.228;2023-02-03T17:05:49;13.32;;;6.70;;
36253;SDS011;22291;52.250;21.228;2023-02-03T17:08:18;10.32;;;4.78;;
36253;SDS011;22291;52.250;21.228;2023-02-03T17:10:47;15.58;;;7.10;;
36253;SDS011;22291;52.250;21.228;2023-02-03T17:13:14;21.35;;;9.30;;
36253;SDS011;22291;52.250;21.228;2023-02-03T17:15:44;17.70;;;8.30;;
36253;SDS011;22291;52.250;21.228;2023-02-03T17:18:14;20.17;;;10.23;;
36253;SDS011;22291;52.250;21.228;2023-02-03T17:20:41;22.95;;;10.05;;
36253;SDS011;22291;52.250;21.228;2023-02-03T17:23:09;23.47;;;11.18;;
36253;SDS011;22291;52.250;21.228;2023-02-03T17:25:36;20.62;;;10.32;;
36253;SDS011;22291;52.250;21.228;2023-02-03T17:28:04;21.52;;;10.25;;
36253;SDS011;22291;52.250;21.228;2023-02-03T17:30:33;21.15;;;11.48;;
36253;SDS011;22291;52.250;21.228;2023-02-03T17:33:00;24.25;;;11.35;;
36253;SDS011;22291;52.250;21.228;2023-02-03T17:35:31;27.35;;;11.45;;
36253;SDS011;22291;52.250;21.228;2023-02-03T17:37:57;23.25;;;10.82;;
36253;SDS011;22291;52.250;21.228;2023-02-03T17:40:24;26.33;;;11.70;;
36253;SDS011;22291;52.250;21.228;2023-02-03T17:42:50;24.50;;;11.85;;
36253;SDS011;22291;52.250;21.228;2023-02-03T17:45:16;22.45;;;11.48;;
36253;SDS011;22291;52.250;21.228;2023-02-03T17:47:42;27.77;;;11.48;;
36253;SDS011;22291;52.250;21.228;2023-02-03T17:50:08;22.87;;;11.50;;
36253;SDS011;22291;52.250;21.228;2023-02-03T17:52:35;25.32;;;12.35;;
36253;SDS011;22291;52.250;21.228;2023-02-03T17:55:01;24.70;;;11.05;;
36253;SDS011;22291;52.250;21.228;2023-02-03T17:57:27;24.77;;;12.37;;
36253;SDS011;22291;52.250;21.228;2023-02-03T17:59:54;29.57;;;12.60;;